Time;durP1;ratioP1;P1;durP2;ratioP2;P2;SDS_P1;SDS_P2;PMS_P1;PMS_P2;Temp;Humidity;BMP_temperature;BMP_pressure;BME280_temperature;BME280_humidity;BME280_pressure;Samples;Min_cycle;Max_cycle;Signal;HPM_P1;HPM_P2
2022/10/03 00:00:20;;;;;;;13.75;6.57;;;14.70;96.70;;;;;;5033588;28;20022;-65
2022/10/03 00:03:17;;;;;;;13.00;6.57;;;14.60;96.80;;;;;;5033883;28;20021;-64
2022/10/03 00:06:08;;;;;;;10.70;5.78;;;14.70;97.00;;;;;;5033789;28;20524;-65
2022/10/03 00:09:03;;;;;;;10.63;5.70;;;14.60;96.90;;;;;;5033883;28;20034;-64
2022/10/03 00:11:41;;;;;;;11.90;6.50;;;14.60;96.90;;;;;;5033447;28;20022;-64
2022/10/03 00:14:44;;;;;;;11.77;5.80;;;14.60;97.00;;;;;;5033211;28;20030;-64
2022/10/03 00:17:10;;;;;;;12.25;5.13;;;14.60;97.00;;;;;;5033580;28;20029;-64
2022/10/03 00:19:52;;;;;;;8.45;4.78;;;14.60;96.90;;;;;;5033407;28;20074;-64
2022/10/03 00:22:43;;;;;;;12.18;5.57;;;14.50;97.00;;;;;;5033414;28;20067;-64
2022/10/03 00:25:36;;;;;;;10.57;4.82;;;14.50;97.20;;;;;;5033325;28;20463;-65
2022/10/03 00:28:20;;;;;;;14.70;5.20;;;14.50;97.20;;;;;;5033018;28;20040;-65
2022/10/03 00:30:49;;;;;;;12.70;4.72;;;14.50;97.20;;;;;;5033531;28;20022;-66
2022/10/03 00:33:33;;;;;;;10.32;4.65;;;14.50;97.20;;;;;;5033312;28;20040;-64
2022/10/03 00:36:02;;;;;;;9.70;5.22;;;14.40;97.10;;;;;;5033444;28;20108;-64
2022/10/03 00:38:49;;;;;;;11.30;5.70;;;14.40;97.10;;;;;;5033137;28;20075;-64
2022/10/03 00:41:42;;;;;;;10.32;4.95;;;14.40;97.20;;;;;;5033213;28;20490;-64
2022/10/03 00:44:47;;;;;;;9.13;4.10;;;14.40;97.20;;;;;;5033361;28;20079;-65
2022/10/03 00:47:37;;;;;;;16.10;5.07;;;14.40;97.20;;;;;;5032488;28;20409;-65
2022/10/03 00:50:14;;;;;;;11.40;5.03;;;14.40;97.20;;;;;;5004905;28;20030;-65
2022/10/03 00:52:58;;;;;;;12.43;4.95;;;14.30;97.20;;;;;;5033135;28;20178;-65
2022/10/03 00:55:38;;;;;;;13.98;4.75;;;14.30;97.30;;;;;;5032856;28;20100;-64
2022/10/03 00:58:24;;;;;;;15.05;5.00;;;14.30;97.20;;;;;;5032652;28;20376;-64
2022/10/03 01:00:51;;;;;;;10.07;5.20;;;14.30;97.20;;;;;;5032904;28;20036;-64
2022/10/03 01:03:45;;;;;;;13.55;5.13;;;14.20;97.30;;;;;;5030221;28;20018;-65
2022/10/03 01:06:38;;;;;;;12.80;5.35;;;14.20;97.40;;;;;;5028097;28;20068;-65
2022/10/03 01:09:41;;;;;;;14.45;5.80;;;14.20;97.40;;;;;;5011878;28;20041;-64
2022/10/03 01:12:47;;;;;;;12.90;5.38;;;14.20;97.40;;;;;;5011177;28;20487;-64
2022/10/03 01:15:42;;;;;;;11.63;5.15;;;14.10;97.30;;;;;;5010670;28;20120;-65
2022/10/03 01:18:16;;;;;;;11.50;5.00;;;14.10;97.30;;;;;;5013134;28;20051;-64
2022/10/03 01:20:52;;;;;;;12.35;5.28;;;14.10;97.30;;;;;;5012936;28;20053;-65
2022/10/03 01:23:30;;;;;;;11.70;5.07;;;14.10;97.30;;;;;;5016141;28;20037;-64
2022/10/03 01:26:05;;;;;;;11.60;5.72;;;14.10;97.40;;;;;;5016748;28;20029;-64
2022/10/03 01:31:57;;;;;;;10.32;4.82;;;14.10;97.20;;;;;;5017356;28;20529;-64
2022/10/03 01:34:43;;;;;;;12.45;5.93;;;14.00;97.30;;;;;;5016549;28;20495;-64
2022/10/03 01:37:21;;;;;;;13.00;6.10;;;14.00;97.30;;;;;;5017059;28;20116;-64
2022/10/03 01:39:55;;;;;;;12.82;6.18;;;14.00;97.40;;;;;;5016395;28;20152;-64
2022/10/03 01:42:57;;;;;;;14.10;5.88;;;14.00;97.40;;;;;;5016705;28;20026;-65
2022/10/03 01:46:07;;;;;;;10.80;6.40;;;14.00;97.40;;;;;;5016601;28;20120;-64
2022/10/03 01:48:41;;;;;;;10.35;5.25;;;13.90;97.40;;;;;;5017524;28;20138;-65
2022/10/03 01:51:11;;;;;;;13.43;5.80;;;13.90;97.30;;;;;;5033929;28;20036;-64
2022/10/03 01:54:01;;;;;;;11.57;5.93;;;13.90;97.40;;;;;;5023843;28;20042;-65
2022/10/03 01:56:43;;;;;;;12.57;6.70;;;13.80;97.50;;;;;;5016305;28;20025;-64
2022/10/03 01:59:34;;;;;;;13.52;6.93;;;13.90;97.50;;;;;;5016373;28;20367;-64
2022/10/03 02:02:21;;;;;;;13.23;7.20;;;13.80;97.50;;;;;;5016946;28;20050;-65
2022/10/03 02:05:07;;;;;;;13.27;7.13;;;13.80;97.30;;;;;;5016290;28;20026;-64
2022/10/03 02:07:44;;;;;;;11.98;6.68;;;13.70;97.20;;;;;;5016344;28;20121;-64
2022/10/03 02:10:23;;;;;;;11.40;6.68;;;13.80;97.40;;;;;;5015855;28;20380;-64
2022/10/03 02:13:12;;;;;;;11.27;6.80;;;13.80;97.50;;;;;;5016165;28;20026;-65
2022/10/03 02:16:09;;;;;;;12.68;6.05;;;13.80;97.50;;;;;;5024351;28;20045;-64
2022/10/03 02:18:50;;;;;;;12.55;6.65;;;13.80;97.60;;;;;;5016328;28;20045;-64
2022/10/03 02:21:21;;;;;;;13.20;6.82;;;13.70;97.60;;;;;;5015841;28;20022;-64
2022/10/03 02:24:00;;;;;;;14.32;6.57;;;13.70;97.50;;;;;;5015700;28;20034;-64
2022/10/03 02:27:02;;;;;;;11.45;6.72;;;13.60;97.50;;;;;;5015699;28;20034;-64
2022/10/03 02:29:58;;;;;;;11.77;6.22;;;13.60;97.60;;;;;;5016451;28;20041;-64
2022/10/03 02:32:51;;;;;;;14.98;6.60;;;13.60;97.60;;;;;;5015001;28;20042;-64
2022/10/03 02:35:50;;;;;;;13.95;6.07;;;13.60;97.60;;;;;;5014316;28;20553;-64
2022/10/03 02:38:30;;;;;;;14.07;7.07;;;13.60;97.70;;;;;;5015644;28;20347;-64
2022/10/03 02:41:31;;;;;;;13.93;7.15;;;13.60;97.70;;;;;;5015443;28;20030;-64
2022/10/03 02:44:11;;;;;;;14.40;6.75;;;13.60;97.70;;;;;;5015977;28;20026;-64
2022/10/03 02:46:57;;;;;;;12.23;6.30;;;13.60;97.70;;;;;;5015349;28;20112;-64
2022/10/03 02:49:57;;;;;;;11.63;7.10;;;13.60;97.70;;;;;;5015389;28;20120;-64
2022/10/03 02:53:00;;;;;;;16.27;6.60;;;13.60;97.70;;;;;;5015081;28;20022;-65
2022/10/03 02:55:43;;;;;;;12.25;7.47;;;13.50;97.70;;;;;;5015264;28;20541;-64
2022/10/03 02:58:12;;;;;;;12.32;6.95;;;13.50;97.70;;;;;;5015309;28;20022;-64
2022/10/03 03:01:11;;;;;;;9.57;6.32;;;13.50;97.70;;;;;;5015308;28;20030;-64
2022/10/03 03:03:48;;;;;;;14.15;6.35;;;13.50;97.80;;;;;;5015353;28;20022;-64
2022/10/03 03:06:41;;;;;;;13.73;6.72;;;13.40;97.70;;;;;;5015553;28;20479;-64
2022/10/03 03:09:25;;;;;;;11.82;6.90;;;13.50;97.80;;;;;;5015020;28;20411;-64
2022/10/03 03:11:55;;;;;;;12.25;6.80;;;13.40;97.80;;;;;;5015094;28;20022;-64
2022/10/03 03:14:58;;;;;;;14.10;6.25;;;13.40;97.90;;;;;;5015019;28;20030;-64
2022/10/03 03:17:32;;;;;;;;;;;13.40;98.00;;;;;;5015304;28;20041;-64
2022/10/03 03:20:14;;;;;;;12.45;6.80;;;13.40;97.90;;;;;;5014989;28;19906;-64
2022/10/03 03:23:06;;;;;;;10.32;6.18;;;13.40;98.00;;;;;;5014251;28;20471;-65
2022/10/03 03:25:54;;;;;;;9.80;6.47;;;13.40;97.90;;;;;;5014717;28;20084;-65
2022/10/03 03:28:52;;;;;;;11.38;6.55;;;13.40;97.90;;;;;;5014748;28;20080;-64
2022/10/03 03:31:22;;;;;;;14.98;6.53;;;13.30;97.90;;;;;;5014481;28;20088;-64
2022/10/03 03:34:21;;;;;;;14.68;7.43;;;13.30;97.90;;;;;;5014345;28;20065;-64
2022/10/03 03:37:36;;;;;;;15.13;6.40;;;13.30;97.90;;;;;;5014200;28;20034;-64
2022/10/03 03:40:28;;;;;;;12.45;6.45;;;13.20;97.90;;;;;;5015562;28;20037;-64
2022/10/03 03:43:18;;;;;;;10.02;6.50;;;13.20;97.90;;;;;;5014425;28;20501;-64
2022/10/03 03:46:03;;;;;;;14.05;6.35;;;13.20;97.90;;;;;;5013846;28;20072;-64
2022/10/03 03:48:40;;;;;;;9.80;6.88;;;13.20;97.90;;;;;;5014319;28;19996;-64
2022/10/03 03:51:12;;;;;;;9.75;6.38;;;13.20;98.00;;;;;;5014133;28;20338;-65
2022/10/03 03:53:37;;;;;;;18.23;6.70;;;13.20;98.00;;;;;;5014135;28;20525;-66
2022/10/03 03:56:42;;;;;;;13.93;6.97;;;13.20;98.10;;;;;;5014342;28;20030;-65
2022/10/03 03:59:44;;;;;;;10.60;7.13;;;13.20;98.00;;;;;;5014081;28;20061;-65
2022/10/03 04:02:32;;;;;;;14.48;8.07;;;13.20;98.00;;;;;;5014202;28;20022;-65
2022/10/03 04:05:25;;;;;;;16.60;7.53;;;13.20;98.00;;;;;;5014017;28;20117;-65
2022/10/03 04:08:19;;;;;;;12.98;6.82;;;13.10;98.00;;;;;;5014057;28;20038;-65
2022/10/03 04:11:05;;;;;;;12.70;7.43;;;13.10;98.10;;;;;;5013868;28;20037;-64
2022/10/03 04:13:46;;;;;;;15.45;8.13;;;13.10;98.10;;;;;;5013886;28;20026;-64
2022/10/03 04:20:00;;;;;;;11.13;7.20;;;13.10;98.10;;;;;;5013430;28;20065;-64
2022/10/03 04:22:49;;;;;;;13.90;6.90;;;13.10;98.20;;;;;;5013488;28;20045;-64
2022/10/03 04:25:26;;;;;;;14.35;7.78;;;13.10;98.10;;;;;;5013702;28;20030;-65
2022/10/03 04:28:05;;;;;;;14.10;7.00;;;13.00;98.10;;;;;;5013680;28;20053;-64
2022/10/03 04:30:46;;;;;;;11.93;7.47;;;13.00;98.10;;;;;;5013823;28;20443;-64
2022/10/03 04:33:18;;;;;;;15.68;7.45;;;13.00;98.20;;;;;;5013560;28;20053;-64
2022/10/03 04:36:31;;;;;;;10.60;7.05;;;13.00;98.30;;;;;;5013273;28;20038;-64
2022/10/03 04:39:07;;;;;;;14.27;7.35;;;13.00;98.20;;;;;;5011206;28;20034;-65
2022/10/03 04:41:52;;;;;;;16.67;7.63;;;13.00;98.20;;;;;;5013177;28;20286;-65
2022/10/03 04:44:53;;;;;;;14.48;7.45;;;13.00;98.20;;;;;;5013428;28;20083;-64
2022/10/03 04:47:33;;;;;;;18.95;8.60;;;12.90;98.20;;;;;;5013330;28;20041;-64
2022/10/03 04:50:02;;;;;;;15.15;7.50;;;12.90;98.30;;;;;;5013043;28;20025;-65
2022/10/03 04:52:38;;;;;;;18.70;8.55;;;12.90;98.30;;;;;;5013273;28;20030;-65
2022/10/03 04:55:45;;;;;;;12.43;7.50;;;13.00;98.30;;;;;;5013493;28;20026;-65
2022/10/03 04:58:38;;;;;;;16.35;8.13;;;12.90;98.20;;;;;;5032374;28;20487;-64
2022/10/03 05:01:30;;;;;;;;;;;12.80;98.30;;;;;;5026512;28;20439;-64
2022/10/03 05:04:22;;;;;;;10.98;7.13;;;12.80;98.70;;;;;;5041361;28;19936;-64
2022/10/03 05:07:09;;;;;;;14.15;7.55;;;12.80;98.80;;;;;;5044302;28;20164;-64
2022/10/03 05:09:55;;;;;;;14.07;8.98;;;12.80;98.90;;;;;;5028414;28;20510;-64
2022/10/03 05:12:58;;;;;;;17.63;8.45;;;12.80;98.80;;;;;;5013097;28;20068;-64
2022/10/03 05:15:45;;;;;;;34.58;8.52;;;12.80;98.70;;;;;;5012866;28;20040;-64
2022/10/03 05:18:34;;;;;;;12.63;8.32;;;12.80;98.70;;;;;;5012568;28;20149;-64
2022/10/03 05:21:25;;;;;;;10.40;7.78;;;12.80;98.40;;;;;;5013051;28;20045;-64
2022/10/03 05:24:07;;;;;;;17.35;9.27;;;12.80;98.30;;;;;;5012778;28;20037;-64
2022/10/03 05:27:02;;;;;;;21.13;8.90;;;12.80;98.40;;;;;;5012843;28;20499;-63
2022/10/03 05:29:39;;;;;;;13.45;7.60;;;12.80;98.30;;;;;;5011722;28;20045;-64
2022/10/03 05:32:26;;;;;;;14.48;8.38;;;12.80;98.30;;;;;;5012496;28;20026;-63
2022/10/03 05:35:21;;;;;;;15.30;9.80;;;12.80;98.40;;;;;;5012865;28;20034;-64
2022/10/03 05:38:06;;;;;;;17.58;10.73;;;12.80;98.40;;;;;;5012903;28;20088;-63
2022/10/03 05:40:34;;;;;;;16.55;11.02;;;12.80;98.40;;;;;;5012553;28;20024;-64
2022/10/03 05:43:18;;;;;;;16.00;11.00;;;12.80;98.40;;;;;;5012903;28;20057;-63
2022/10/03 05:45:48;;;;;;;17.33;10.48;;;12.80;98.40;;;;;;5012829;28;20030;-63
2022/10/03 05:48:37;;;;;;;18.52;11.00;;;12.70;98.50;;;;;;5027614;28;20088;-63
2022/10/03 05:51:35;;;;;;;14.05;9.90;;;12.80;98.50;;;;;;5012639;28;20056;-64
2022/10/03 05:54:34;;;;;;;13.52;9.63;;;12.80;98.60;;;;;;5012874;28;20022;-64
2022/10/03 05:57:09;;;;;;;16.30;9.55;;;12.80;98.50;;;;;;5018610;28;20034;-63
2022/10/03 06:00:20;;;;;;;13.35;9.60;;;12.80;98.60;;;;;;5031351;28;20025;-64
2022/10/03 06:03:27;;;;;;;17.63;9.60;;;12.70;98.60;;;;;;5023262;28;20045;-64
2022/10/03 06:06:18;;;;;;;18.52;9.75;;;12.70;98.60;;;;;;5031773;28;20026;-65
2022/10/03 06:09:22;;;;;;;15.45;9.05;;;12.70;98.60;;;;;;5034408;28;20026;-64
2022/10/03 06:12:09;;;;;;;17.92;9.23;;;12.70;98.70;;;;;;5035842;28;20103;-64
2022/10/03 06:15:05;;;;;;;18.98;9.15;;;12.70;98.80;;;;;;5035015;28;20044;-63
2022/10/03 06:17:50;;;;;;;19.92;9.82;;;12.70;98.90;;;;;;5035719;28;20028;-64
2022/10/03 06:20:53;;;;;;;14.85;8.73;;;12.70;98.90;;;;;;5035743;28;20083;-63
2022/10/03 06:23:48;;;;;;;15.30;9.20;;;12.70;99.10;;;;;;5015738;28;20033;-62
2022/10/03 06:26:35;;;;;;;16.73;9.50;;;12.70;99.30;;;;;;4983087;28;20052;-63
2022/10/03 06:29:19;;;;;;;14.27;8.30;;;12.70;99.40;;;;;;5035918;28;20036;-63
2022/10/03 06:32:03;;;;;;;15.82;9.60;;;12.70;99.50;;;;;;5034606;28;20025;-63
2022/10/03 06:34:34;;;;;;;16.33;11.75;;;12.70;99.50;;;;;;5035871;28;20025;-63
2022/10/03 06:37:08;;;;;;;22.73;12.27;;;12.70;99.70;;;;;;5035425;28;20033;-64
2022/10/03 06:39:53;;;;;;;18.40;11.02;;;12.70;99.90;;;;;;5035417;28;20082;-64
2022/10/03 06:42:43;;;;;;;18.63;10.77;;;12.70;99.90;;;;;;5035301;28;20080;-64
2022/10/03 06:45:09;;;;;;;18.27;10.93;;;12.70;99.90;;;;;;5035077;28;20022;-63
2022/10/03 06:48:07;;;;;;;19.42;11.00;;;12.80;99.90;;;;;;5035121;28;20487;-64
2022/10/03 06:50:49;;;;;;;14.20;7.68;;;12.70;99.90;;;;;;5033476;28;20570;-63
2022/10/03 06:53:38;;;;;;;19.38;9.52;;;12.80;99.90;;;;;;5034905;28;20029;-63
2022/10/03 06:56:44;;;;;;;8.93;3.80;;;12.90;99.90;;;;;;5035331;28;20029;-63
2022/10/03 06:59:19;;;;;;;15.60;8.60;;;13.00;99.90;;;;;;5031936;28;20397;-63
2022/10/03 07:02:18;;;;;;;12.43;7.55;;;13.00;99.90;;;;;;5034835;28;20043;-63
2022/10/03 07:05:07;;;;;;;16.98;8.07;;;13.10;99.90;;;;;;5035215;28;20091;-63
2022/10/03 07:07:48;;;;;;;14.13;8.60;;;13.20;99.90;;;;;;5034760;28;20051;-63
2022/10/03 07:10:26;;;;;;;18.42;9.85;;;13.20;99.90;;;;;;5035004;28;20493;-63
2022/10/03 07:13:17;;;;;;;19.50;10.75;;;13.30;99.90;;;;;;5034590;28;20038;-63
2022/10/03 07:16:00;;;;;;;21.02;9.32;;;13.30;99.90;;;;;;5034753;28;20529;-63
2022/10/03 07:19:09;;;;;;;15.82;8.88;;;13.40;99.90;;;;;;5035960;28;20471;-63
2022/10/03 07:21:59;;;;;;;16.58;7.45;;;13.40;99.90;;;;;;5012164;28;20132;-63
2022/10/03 07:25:17;;;;;;;19.08;8.57;;;13.40;99.90;;;;;;5034656;28;20079;-63
2022/10/03 07:27:46;;;;;;;19.77;8.38;;;13.50;99.90;;;;;;5022935;28;20407;-63
2022/10/03 07:30:21;;;;;;;15.80;8.23;;;13.50;99.90;;;;;;5034445;28;20021;-63
2022/10/03 07:33:04;;;;;;;19.55;8.68;;;13.60;99.90;;;;;;5034187;28;20030;-63
2022/10/03 07:38:58;;;;;;;17.73;8.70;;;13.70;99.90;;;;;;5033087;28;20029;-63
2022/10/03 07:41:30;;;;;;;20.30;10.05;;;13.80;99.90;;;;;;5034303;28;20398;-63
2022/10/03 07:44:34;;;;;;;18.50;9.52;;;13.80;99.90;;;;;;5028960;28;20022;-63
2022/10/03 07:47:12;;;;;;;19.00;9.52;;;13.80;99.90;;;;;;5028271;28;20499;-63
2022/10/03 07:50:27;;;;;;;19.77;10.10;;;13.90;99.90;;;;;;5034076;28;20076;-64
2022/10/03 07:53:27;;;;;;;16.42;8.95;;;14.00;99.90;;;;;;5032730;28;20095;-64
2022/10/03 07:56:01;;;;;;;18.10;8.88;;;14.00;99.90;;;;;;5033561;28;20079;-63
2022/10/03 07:58:41;;;;;;;19.48;8.50;;;14.00;99.90;;;;;;5033829;28;20041;-64
2022/10/03 08:01:39;;;;;;;19.58;8.57;;;14.10;99.90;;;;;;5034006;28;20030;-63
2022/10/03 08:04:30;;;;;;;21.80;9.30;;;14.10;99.90;;;;;;5033526;28;20079;-63
2022/10/03 08:07:39;;;;;;;18.17;8.48;;;14.20;99.90;;;;;;5023695;28;20116;-63
2022/10/03 08:10:20;;;;;;;17.50;8.27;;;14.20;99.90;;;;;;5021441;28;20048;-63
2022/10/03 08:13:02;;;;;;;21.48;8.15;;;14.20;99.90;;;;;;5033121;28;20371;-63
2022/10/03 08:15:46;;;;;;;;;;;14.30;99.90;;;;;;5034098;28;20034;-64
2022/10/03 08:18:27;;;;;;;18.45;7.97;;;14.20;99.90;;;;;;5032875;28;19905;-63
2022/10/03 08:21:10;;;;;;;22.25;7.38;;;14.30;99.90;;;;;;5032301;28;20044;-63
2022/10/03 08:23:53;;;;;;;;;;;14.30;99.90;;;;;;5033788;28;20112;-63
2022/10/03 08:26:38;;;;;;;20.27;7.72;;;14.30;99.90;;;;;;5033978;28;19919;-63
2022/10/03 08:29:15;;;;;;;16.13;6.68;;;14.30;99.90;;;;;;5032595;28;20029;-63
2022/10/03 08:31:51;;;;;;;16.23;7.38;;;14.40;99.90;;;;;;5033160;28;20025;-62
2022/10/03 08:34:36;;;;;;;16.40;6.78;;;14.40;99.90;;;;;;5044292;28;20033;-63
2022/10/03 08:37:29;;;;;;;18.83;7.38;;;14.50;99.90;;;;;;5027186;28;20037;-63
2022/10/03 08:40:08;;;;;;;18.92;7.00;;;14.50;99.90;;;;;;5041695;28;20379;-61
2022/10/03 08:42:57;;;;;;;19.25;7.72;;;14.50;99.90;;;;;;5031398;28;20508;-63
2022/10/03 08:45:59;;;;;;;17.08;7.40;;;14.60;99.90;;;;;;5029862;28;20475;-61
2022/10/03 08:48:31;;;;;;;15.35;7.78;;;14.60;99.90;;;;;;5024294;28;20096;-62
2022/10/03 08:51:34;;;;;;;16.58;6.95;;;14.60;99.90;;;;;;5034399;28;20135;-62
2022/10/03 08:54:08;;;;;;;17.80;6.68;;;14.60;99.90;;;;;;5030750;28;20549;-62
2022/10/03 08:57:00;;;;;;;17.05;7.15;;;14.70;99.90;;;;;;5030127;28;20470;-62
2022/10/03 08:59:38;;;;;;;18.27;7.97;;;14.70;99.90;;;;;;5041559;28;20402;-62
2022/10/03 09:02:28;;;;;;;18.08;6.95;;;14.70;99.90;;;;;;5028691;28;20040;-64
2022/10/03 09:05:08;;;;;;;16.70;7.10;;;14.70;99.90;;;;;;5027728;28;20042;-64
2022/10/03 09:08:18;;;;;;;23.55;7.35;;;14.80;99.90;;;;;;5031198;28;20038;-64
2022/10/03 09:11:01;;;;;;;21.50;8.10;;;14.80;99.90;;;;;;5010863;28;20045;-64
2022/10/03 09:13:42;;;;;;;;;;;14.80;99.90;;;;;;5013405;28;20069;-64
2022/10/03 09:16:29;;;;;;;20.63;7.15;;;14.80;99.90;;;;;;5031625;28;19916;-64
2022/10/03 09:19:34;;;;;;;20.85;6.70;;;14.80;99.90;;;;;;5025644;28;20034;-63
2022/10/03 09:22:18;;;;;;;15.50;5.63;;;14.80;99.90;;;;;;5028157;28;20044;-64
2022/10/03 09:25:09;;;;;;;12.27;5.30;;;14.80;99.90;;;;;;5047633;28;20555;-64
2022/10/03 09:28:02;;;;;;;12.88;4.07;;;14.90;99.90;;;;;;5037094;28;20084;-64
2022/10/03 09:30:30;;;;;;;17.40;5.97;;;14.90;99.90;;;;;;5030682;28;20037;-64
2022/10/03 09:33:30;;;;;;;13.75;4.10;;;14.90;99.90;;;;;;5035030;28;20386;-63
2022/10/03 09:36:10;;;;;;;14.63;4.65;;;14.90;99.90;;;;;;5030214;28;20033;-64
2022/10/03 09:39:01;;;;;;;12.82;5.57;;;14.90;99.90;;;;;;5027735;28;20155;-64
2022/10/03 09:42:09;;;;;;;9.30;3.90;;;15.00;99.90;;;;;;5021652;28;20037;-63
2022/10/03 09:45:24;;;;;;;12.82;3.88;;;15.00;99.90;;;;;;5038277;28;20033;-64
2022/10/03 09:48:14;;;;;;;11.25;3.75;;;15.00;99.90;;;;;;5036342;28;20109;-64
2022/10/03 09:50:52;;;;;;;14.13;4.18;;;15.00;99.90;;;;;;5048536;28;20179;-64
2022/10/03 09:53:28;;;;;;;11.55;3.78;;;15.00;99.90;;;;;;5027143;28;20466;-64
2022/10/03 09:56:34;;;;;;;10.00;3.50;;;15.10;99.90;;;;;;5058447;28;20051;-64
2022/10/03 09:59:23;;;;;;;10.48;3.65;;;15.10;99.90;;;;;;5018950;28;20099;-64
2022/10/03 10:01:57;;;;;;;9.65;3.63;;;15.10;99.90;;;;;;5038400;28;20036;-64
2022/10/03 10:04:40;;;;;;;10.50;3.20;;;15.10;99.90;;;;;;5024954;28;20087;-64
2022/10/03 10:07:33;;;;;;;10.75;3.53;;;15.20;99.90;;;;;;5029469;28;20053;-64
2022/10/03 10:10:23;;;;;;;12.82;4.18;;;15.20;99.90;;;;;;5034430;28;20024;-63
2022/10/03 10:13:26;;;;;;;9.02;3.17;;;15.20;99.90;;;;;;5036508;28;20109;-64
2022/10/03 10:16:16;;;;;;;12.38;3.58;;;15.30;99.90;;;;;;5034044;28;20029;-64
2022/10/03 10:19:01;;;;;;;9.02;3.60;;;15.30;99.90;;;;;;5040581;28;20403;-64
2022/10/03 10:21:55;;;;;;;10.32;3.38;;;15.30;99.90;;;;;;5029405;28;20029;-64
2022/10/03 10:24:36;;;;;;;8.40;2.63;;;15.30;99.90;;;;;;5029571;28;20037;-64
2022/10/03 10:27:35;;;;;;;9.18;3.35;;;15.40;99.90;;;;;;5036519;28;20044;-63
2022/10/03 10:30:00;;;;;;;7.88;2.80;;;15.40;99.90;;;;;;5035505;28;20044;-64
2022/10/03 10:32:43;;;;;;;8.55;2.70;;;15.40;99.90;;;;;;5046206;28;20057;-63
2022/10/03 10:36:08;;;;;;;12.68;3.25;;;15.40;99.90;;;;;;5034588;28;20037;-64
2022/10/03 10:38:58;;;;;;;5.78;2.55;;;15.50;99.90;;;;;;5027407;28;20030;-63
2022/10/03 10:42:09;;;;;;;8.50;2.40;;;15.50;99.90;;;;;;5027107;28;20029;-64
2022/10/03 10:44:56;;;;;;;9.40;2.92;;;15.50;99.90;;;;;;5022154;28;20544;-63
2022/10/03 10:47:44;;;;;;;11.90;2.38;;;15.50;99.90;;;;;;5017932;28;20128;-64
2022/10/03 10:50:36;;;;;;;7.10;2.85;;;15.60;99.90;;;;;;5024943;28;20060;-64
2022/10/03 10:53:40;;;;;;;13.07;2.90;;;15.60;99.90;;;;;;5029860;28;20032;-64
2022/10/03 10:56:20;;;;;;;6.63;2.13;;;15.60;99.90;;;;;;5035421;28;20044;-64
2022/10/03 10:58:58;;;;;;;10.48;2.67;;;15.60;99.90;;;;;;5033295;28;20048;-64
2022/10/03 11:01:48;;;;;;;9.20;2.42;;;15.70;99.90;;;;;;5029335;28;20030;-63
2022/10/03 11:04:36;;;;;;;7.68;1.98;;;15.70;99.90;;;;;;5037156;28;20124;-63
2022/10/03 11:07:24;;;;;;;6.10;2.47;;;15.70;99.90;;;;;;5038064;28;20037;-64
2022/10/03 11:10:31;;;;;;;7.07;2.25;;;15.80;99.90;;;;;;5044394;28;20573;-64
2022/10/03 11:13:17;;;;;;;6.93;2.20;;;15.80;99.90;;;;;;5042576;28;20032;-64
2022/10/03 11:16:04;;;;;;;8.70;2.20;;;15.80;99.90;;;;;;5022289;28;20042;-64
2022/10/03 11:18:58;;;;;;;9.85;2.65;;;15.80;99.90;;;;;;5037316;28;20100;-64
2022/10/03 11:21:36;;;;;;;12.02;3.00;;;15.90;99.90;;;;;;5019868;28;20120;-64
2022/10/03 11:24:39;;;;;;;8.95;2.20;;;15.90;99.90;;;;;;5029003;28;20029;-64
2022/10/03 11:27:32;;;;;;;10.65;2.03;;;15.90;99.90;;;;;;5028183;28;20056;-64
2022/10/03 11:30:30;;;;;;;6.88;2.72;;;15.90;99.90;;;;;;5034440;28;20033;-64
2022/10/03 11:33:15;;;;;;;8.65;2.17;;;16.00;99.90;;;;;;5031205;28;20459;-64
2022/10/03 11:35:59;;;;;;;6.82;2.13;;;16.00;99.90;;;;;;5023779;28;20037;-64
2022/10/03 11:38:29;;;;;;;8.38;1.77;;;16.10;99.90;;;;;;5032706;28;20042;-64
2022/10/03 11:41:23;;;;;;;7.32;2.03;;;16.10;99.90;;;;;;5032528;28;20026;-64
2022/10/03 11:44:06;;;;;;;7.28;2.25;;;16.10;99.90;;;;;;5023176;28;20041;-64
2022/10/03 11:46:53;;;;;;;11.55;2.63;;;16.10;99.90;;;;;;5037455;28;20033;-63
2022/10/03 11:49:28;;;;;;;10.93;2.33;;;16.20;99.90;;;;;;5052449;28;20032;-64
2022/10/03 11:52:10;;;;;;;6.95;2.65;;;16.20;99.90;;;;;;5041051;28;20028;-64
2022/10/03 11:54:45;;;;;;;9.68;2.15;;;16.20;99.90;;;;;;5040587;28;20045;-64
2022/10/03 11:57:20;;;;;;;11.30;2.13;;;16.20;99.90;;;;;;5037963;28;20075;-64
2022/10/03 11:59:54;;;;;;;6.68;1.85;;;16.30;99.90;;;;;;5032209;28;20057;-64
2022/10/03 12:02:37;;;;;;;5.57;1.88;;;16.30;99.90;;;;;;5046595;28;20029;-64
2022/10/03 12:05:17;;;;;;;10.52;1.85;;;16.30;99.20;;;;;;5033187;28;20064;-64
2022/10/03 12:11:00;;;;;;;5.43;1.77;;;16.40;98.70;;;;;;5022860;28;20048;-64
2022/10/03 12:13:44;;;;;;;5.13;1.70;;;16.40;99.50;;;;;;5031179;28;20036;-63
2022/10/03 12:16:28;;;;;;;8.82;2.20;;;16.40;99.70;;;;;;5030400;28;20506;-63
2022/10/03 12:19:30;;;;;;;6.20;1.48;;;16.40;99.60;;;;;;5034720;28;20269;-64
2022/10/03 12:22:16;;;;;;;6.95;1.77;;;16.50;99.90;;;;;;5028186;28;20029;-64
2022/10/03 12:24:44;;;;;;;4.90;1.67;;;16.50;99.80;;;;;;5039383;28;20087;-63
2022/10/03 12:27:15;;;;;;;6.70;1.75;;;16.50;99.90;;;;;;5033416;28;20037;-64
2022/10/03 12:29:50;;;;;;;7.05;1.48;;;16.50;98.30;;;;;;5044661;28;20543;-64
2022/10/03 12:33:03;;;;;;;8.45;2.08;;;16.60;99.50;;;;;;5033070;28;20033;-65
2022/10/03 12:35:50;;;;;;;4.22;1.60;;;16.60;98.50;;;;;;5035730;28;20232;-64
2022/10/03 12:38:27;;;;;;;7.97;1.67;;;16.60;99.80;;;;;;5028325;28;20026;-64
2022/10/03 12:41:20;;;;;;;4.43;1.48;;;16.70;99.10;;;;;;5026918;28;20068;-65
2022/10/03 12:44:04;;;;;;;4.20;1.30;;;16.70;99.60;;;;;;5029800;28;20071;-64
2022/10/03 12:46:38;;;;;;;8.63;1.58;;;16.70;99.70;;;;;;5028922;28;20044;-64
2022/10/03 12:49:24;;;;;;;4.68;1.40;;;16.70;99.80;;;;;;5019328;28;20037;-64
2022/10/03 12:51:55;;;;;;;6.45;1.77;;;16.70;99.80;;;;;;5030450;28;20033;-64
2022/10/03 12:54:26;;;;;;;9.07;2.00;;;16.80;99.80;;;;;;5032085;28;20060;-64
2022/10/03 12:57:10;;;;;;;5.47;1.53;;;16.80;99.60;;;;;;5030905;28;20022;-64
2022/10/03 12:59:51;;;;;;;4.53;1.08;;;16.80;99.40;;;;;;5038072;28;20284;-64
2022/10/03 13:02:23;;;;;;;4.68;1.65;;;16.80;98.80;;;;;;5051231;28;20053;-65
2022/10/03 13:04:51;;;;;;;5.67;1.20;;;16.80;98.20;;;;;;5033678;28;20112;-64
2022/10/03 13:07:22;;;;;;;4.70;1.27;;;16.90;99.00;;;;;;5023278;28;20146;-64
2022/10/03 13:10:02;;;;;;;5.95;1.23;;;16.90;99.20;;;;;;5034057;28;20029;-64
2022/10/03 13:12:44;;;;;;;5.40;1.33;;;16.90;98.90;;;;;;5028851;28;20025;-64
2022/10/03 13:15:42;;;;;;;6.78;1.67;;;16.90;98.90;;;;;;5030904;28;20029;-64
2022/10/03 13:18:32;;;;;;;4.63;1.38;;;17.00;99.20;;;;;;5034347;28;20631;-64
2022/10/03 13:21:07;;;;;;;4.65;1.60;;;17.00;99.00;;;;;;5040446;28;20039;-64
2022/10/03 13:23:52;;;;;;;3.25;1.10;;;17.00;99.10;;;;;;5034355;28;20030;-64
2022/10/03 13:26:46;;;;;;;7.05;1.75;;;17.00;99.00;;;;;;5033383;28;20482;-65
2022/10/03 13:29:47;;;;;;;6.60;1.45;;;17.00;97.50;;;;;;5032616;28;20038;-64
2022/10/03 13:32:36;;;;;;;9.35;1.55;;;17.00;97.70;;;;;;5038533;28;20029;-64
2022/10/03 13:35:58;;;;;;;8.75;1.65;;;17.00;97.00;;;;;;5033025;28;20029;-64
2022/10/03 13:38:44;;;;;;;7.28;1.40;;;17.10;97.50;;;;;;4982248;28;20034;-64
2022/10/03 13:41:41;;;;;;;5.82;1.52;;;17.10;97.10;;;;;;5001051;28;20033;-65
2022/10/03 13:44:18;;;;;;;5.32;1.02;;;17.10;96.90;;;;;;5032312;28;20045;-64
2022/10/03 13:47:11;;;;;;;7.88;1.65;;;17.20;97.90;;;;;;5036764;28;20034;-64
2022/10/03 13:50:01;;;;;;;6.47;1.30;;;17.20;97.60;;;;;;5030414;28;20025;-64
2022/10/03 13:52:39;;;;;;;3.42;1.15;;;17.20;97.30;;;;;;5037222;28;20021;-64
2022/10/03 13:55:19;;;;;;;3.80;1.40;;;17.20;97.50;;;;;;5032325;28;20036;-64
2022/10/03 13:57:53;;;;;;;6.25;1.70;;;17.30;97.90;;;;;;5034759;28;20079;-64
2022/10/03 14:00:22;;;;;;;6.85;1.63;;;17.20;97.80;;;;;;5033620;28;20028;-64
2022/10/03 14:03:13;;;;;;;5.50;1.30;;;17.30;97.70;;;;;;5022210;28;20026;-64
2022/10/03 14:06:09;;;;;;;7.78;1.50;;;17.30;97.50;;;;;;5031388;28;20018;-64
2022/10/03 14:09:02;;;;;;;7.80;1.50;;;17.30;97.20;;;;;;5031154;28;20491;-65
2022/10/03 14:11:53;;;;;;;5.95;1.23;;;17.30;97.40;;;;;;5035506;28;20021;-65
2022/10/03 14:15:01;;;;;;;4.22;1.27;;;17.40;97.50;;;;;;5030955;28;20035;-65
2022/10/03 14:17:30;;;;;;;3.42;1.13;;;17.40;97.40;;;;;;5038915;28;20086;-64
2022/10/03 14:20:06;;;;;;;7.05;1.30;;;17.40;97.20;;;;;;5039943;28;20099;-65
2022/10/03 14:23:06;;;;;;;3.95;1.40;;;17.40;97.30;;;;;;5039361;28;20064;-65
2022/10/03 14:25:55;;;;;;;8.48;1.35;;;17.40;97.20;;;;;;5036428;28;20033;-65
2022/10/03 14:28:29;;;;;;;7.63;1.50;;;17.40;96.90;;;;;;5033612;28;20076;-65
2022/10/03 14:30:55;;;;;;;5.57;1.33;;;17.40;96.60;;;;;;5036138;28;20025;-65
2022/10/03 14:33:41;;;;;;;4.65;1.30;;;17.40;96.50;;;;;;5031268;28;20095;-65